createdAt,value
2019-05-22T00:00:49.605Z,17.63
2019-05-22T00:03:23.820Z,17.87
2019-05-22T00:05:56.657Z,17.17
2019-05-22T00:08:27.654Z,16.93
2019-05-22T00:10:59.686Z,17.90
2019-05-22T00:13:31.577Z,19.53
2019-05-22T00:16:04.070Z,20.63
2019-05-22T00:18:35.748Z,22.50
2019-05-22T00:21:07.017Z,23.90
2019-05-22T00:23:40.981Z,23.17
2019-05-22T00:26:12.102Z,24.50
2019-05-22T00:28:43.099Z,22.00
2019-05-22T00:31:16.694Z,22.20
2019-05-22T00:33:47.772Z,23.77
2019-05-22T00:36:18.530Z,22.37
2019-05-22T00:38:50.314Z,23.17
2019-05-22T00:41:23.492Z,21.77
2019-05-22T00:43:53.625Z,21.03
2019-05-22T00:46:25.555Z,20.50
2019-05-22T00:48:57.863Z,21.50
2019-05-22T00:51:41.154Z,20.17
2019-05-22T00:54:39.545Z,20.83
2019-05-22T00:57:22.353Z,19.07
2019-05-22T00:59:54.620Z,19.80
2019-05-22T01:02:28.081Z,20.83
2019-05-22T01:05:00.099Z,20.90
2019-05-22T01:07:37.381Z,21.83
2019-05-22T01:10:11.997Z,20.13
2019-05-22T01:12:44.299Z,21.60
2019-05-22T01:15:20.002Z,20.30
2019-05-22T01:17:51.106Z,18.80
2019-05-22T01:20:25.183Z,19.70
2019-05-22T01:22:58.079Z,18.80
2019-05-22T01:25:29.193Z,19.23
2019-05-22T01:28:02.249Z,20.07
2019-05-22T01:30:40.085Z,20.13
2019-05-22T01:33:11.982Z,19.80
2019-05-22T01:35:46.721Z,19.80
2019-05-22T01:38:19.164Z,19.40
2019-05-22T01:40:55.530Z,19.33
2019-05-22T01:43:27.496Z,20.13
2019-05-22T01:46:01.861Z,21.00
2019-05-22T01:48:37.016Z,19.47
2019-05-22T01:51:07.698Z,20.40
2019-05-22T01:53:38.629Z,20.43
2019-05-22T01:56:11.792Z,19.93
2019-05-22T01:58:43.894Z,18.93
2019-05-22T02:01:19.011Z,18.47
2019-05-22T02:03:50.886Z,18.60
2019-05-22T02:06:23.537Z,18.53
2019-05-22T02:09:27.271Z,19.63
2019-05-22T02:12:10.615Z,16.93
2019-05-22T02:14:46.086Z,18.57
2019-05-22T02:17:18.682Z,18.07
2019-05-22T02:19:49.255Z,16.57
2019-05-22T02:22:20.259Z,16.70
2019-05-22T02:24:52.192Z,18.00
2019-05-22T02:27:22.234Z,17.70
2019-05-22T02:29:55.238Z,15.80
2019-05-22T02:32:26.113Z,15.93
2019-05-22T02:34:56.734Z,16.00
2019-05-22T02:37:27.280Z,16.27
2019-05-22T02:39:57.917Z,16.53
2019-05-22T02:42:31.149Z,16.13
2019-05-22T02:45:02.070Z,15.70
2019-05-22T02:47:32.428Z,15.53
2019-05-22T02:50:08.371Z,15.97
2019-05-22T02:52:38.807Z,15.13
2019-05-22T02:55:10.761Z,16.67
2019-05-22T02:57:41.864Z,15.40
2019-05-22T03:00:12.789Z,16.40
2019-05-22T03:02:53.875Z,16.10
2019-05-22T03:05:25.346Z,17.47
2019-05-22T03:07:55.956Z,17.57
2019-05-22T03:10:27.514Z,16.80
2019-05-22T03:12:58.550Z,16.50
2019-05-22T03:15:30.043Z,16.20
2019-05-22T03:18:02.975Z,16.60
2019-05-22T03:20:34.124Z,16.60
2019-05-22T03:23:44.123Z,16.00
2019-05-22T03:26:14.978Z,14.77
2019-05-22T03:28:46.041Z,16.30
2019-05-22T03:31:18.734Z,15.30
2019-05-22T03:33:48.676Z,15.47
2019-05-22T03:36:21.052Z,14.80
2019-05-22T03:38:52.003Z,15.00
2019-05-22T03:41:22.682Z,14.43
2019-05-22T03:43:53.419Z,13.87
2019-05-22T03:46:32.898Z,14.30
2019-05-22T03:49:05.259Z,12.33
2019-05-22T03:51:36.504Z,12.30
2019-05-22T03:54:07.802Z,12.60
2019-05-22T03:56:42.650Z,13.23
2019-05-22T03:59:13.361Z,13.37
2019-05-22T04:01:45.135Z,12.60
2019-05-22T04:04:20.278Z,10.47
2019-05-22T04:06:52.489Z,10.60
2019-05-22T04:09:25.644Z,8.87
2019-05-22T04:11:56.336Z,9.40
2019-05-22T04:14:38.320Z,10.10
2019-05-22T04:17:10.947Z,9.50
2019-05-22T04:19:50.488Z,9.67
2019-05-22T04:22:17.128Z,10.07
2019-05-22T04:24:47.257Z,10.50
2019-05-22T04:27:18.671Z,9.93
2019-05-22T04:29:50.308Z,10.00
2019-05-22T04:32:40.059Z,9.50
2019-05-22T04:35:13.251Z,9.77
2019-05-22T04:37:44.720Z,9.60
2019-05-22T04:40:54.390Z,9.10
2019-05-22T04:43:26.973Z,9.50
2019-05-22T04:45:58.347Z,9.27
2019-05-22T04:48:29.606Z,9.40
2019-05-22T04:51:03.715Z,8.80
2019-05-22T04:53:34.292Z,9.07
2019-05-22T04:56:09.784Z,10.07
2019-05-22T04:58:46.444Z,8.93
2019-05-22T05:01:16.956Z,8.20
2019-05-22T05:03:47.852Z,8.13
2019-05-22T05:06:19.640Z,8.03
2019-05-22T05:08:49.606Z,7.50
2019-05-22T05:11:20.496Z,7.23
2019-05-22T05:13:50.539Z,7.30
2019-05-22T05:16:21.100Z,6.47
2019-05-22T05:19:10.981Z,8.00
2019-05-22T05:21:41.293Z,6.70
2019-05-22T05:24:12.357Z,7.77
2019-05-22T05:26:44.868Z,7.33
2019-05-22T05:29:28.661Z,7.33
2019-05-22T05:32:01.026Z,8.00
2019-05-22T05:34:40.806Z,6.93
2019-05-22T05:37:13.166Z,6.53
2019-05-22T05:40:29.264Z,8.20
2019-05-22T05:43:01.012Z,7.10
2019-05-22T05:45:33.138Z,7.80
2019-05-22T05:48:05.957Z,8.63
2019-05-22T05:50:40.165Z,8.73
2019-05-22T05:53:19.568Z,10.73
2019-05-22T05:56:17.243Z,10.20
2019-05-22T05:58:49.661Z,10.20
2019-05-22T06:01:39.501Z,8.93
2019-05-22T06:04:11.579Z,9.10
2019-05-22T06:07:20.147Z,8.57
2019-05-22T06:10:25.036Z,8.67
2019-05-22T06:12:56.065Z,8.50
2019-05-22T06:15:46.634Z,9.80
2019-05-22T06:18:42.493Z,9.43
2019-05-22T06:21:14.454Z,8.43
2019-05-22T06:24:12.355Z,8.70
2019-05-22T06:27:21.251Z,9.63
2019-05-22T06:30:02.814Z,8.00
2019-05-22T06:33:19.590Z,8.30
2019-05-22T06:35:52.254Z,8.67
2019-05-22T06:38:52.097Z,8.30
2019-05-22T06:41:31.679Z,8.70
2019-05-22T06:44:33.330Z,7.97
2019-05-22T06:47:06.060Z,8.47
2019-05-22T06:49:48.267Z,8.30
2019-05-22T06:52:19.148Z,9.17
2019-05-22T06:54:49.789Z,9.10
2019-05-22T06:57:29.741Z,9.50
2019-05-22T07:02:35.099Z,9.00
2019-05-22T07:05:07.734Z,9.63
2019-05-22T07:07:38.239Z,8.30
2019-05-22T07:10:12.576Z,9.70
2019-05-22T07:12:50.537Z,8.73
2019-05-22T07:16:00.037Z,8.80
2019-05-22T07:18:32.292Z,8.87
2019-05-22T07:21:03.932Z,8.33
2019-05-22T07:23:36.734Z,8.53
2019-05-22T07:26:08.579Z,8.43
2019-05-22T07:28:39.998Z,8.70
2019-05-22T07:31:10.394Z,7.97
2019-05-22T07:33:40.685Z,7.80
2019-05-22T07:36:16.495Z,7.80
2019-05-22T07:38:44.550Z,7.60
2019-05-22T07:41:15.645Z,7.50
2019-05-22T07:43:45.502Z,8.70
2019-05-22T07:46:16.096Z,7.63
2019-05-22T07:48:46.666Z,6.80
2019-05-22T07:51:18.112Z,7.80
2019-05-22T07:53:48.872Z,6.60
2019-05-22T07:56:20.024Z,7.10
2019-05-22T07:58:51.228Z,6.93
2019-05-22T08:01:22.031Z,6.73
2019-05-22T08:03:53.656Z,6.77
2019-05-22T08:06:23.681Z,6.40
2019-05-22T08:08:55.132Z,6.93
2019-05-22T08:11:27.157Z,7.13
2019-05-22T08:28:36.050Z,8.97
2019-05-22T08:31:07.663Z,8.67
2019-05-22T08:33:39.329Z,8.90
2019-05-22T08:36:10.484Z,7.60
2019-05-22T08:38:41.991Z,8.00
2019-05-22T08:41:13.866Z,7.60
2019-05-22T08:44:11.393Z,8.80
2019-05-22T08:46:17.591Z,8.27
2019-05-22T08:48:49.239Z,7.83
2019-05-22T08:51:21.785Z,7.07
2019-05-22T08:53:53.958Z,7.40
2019-05-22T08:56:25.720Z,7.10
2019-05-22T08:58:56.441Z,5.97
2019-05-22T09:01:27.762Z,6.30
2019-05-22T09:03:58.498Z,5.97
2019-05-22T09:06:29.379Z,6.20
2019-05-22T09:08:59.472Z,5.70
2019-05-22T09:11:30.343Z,5.83
2019-05-22T09:14:00.508Z,8.77
2019-05-22T09:16:30.505Z,8.13
2019-05-22T09:19:01.503Z,8.60
2019-05-22T09:21:32.299Z,8.70
2019-05-22T09:24:03.208Z,8.57
2019-05-22T09:26:34.168Z,8.97
2019-05-22T09:29:05.161Z,9.00
2019-05-22T09:31:35.367Z,8.40
2019-05-22T09:34:05.846Z,8.73
2019-05-22T09:36:36.265Z,8.73
2019-05-22T09:39:17.044Z,8.60
2019-05-22T09:41:55.845Z,8.87
2019-05-22T09:44:25.897Z,9.00
2019-05-22T09:47:15.437Z,8.47
2019-05-22T09:49:46.197Z,7.80
2019-05-22T09:52:16.447Z,6.97
2019-05-22T09:54:47.356Z,6.33
2019-05-22T09:57:17.732Z,7.43
2019-05-22T09:59:47.903Z,7.53
2019-05-22T10:02:18.235Z,6.70
2019-05-22T10:04:49.071Z,6.40
2019-05-22T10:07:19.452Z,6.40
2019-05-22T10:09:50.060Z,7.03
2019-05-22T10:12:21.037Z,7.07
2019-05-22T10:14:52.287Z,7.17
2019-05-22T10:17:23.859Z,7.37
2019-05-22T10:19:59.955Z,7.60
2019-05-22T10:22:32.448Z,8.00
2019-05-22T10:25:14.583Z,6.60
2019-05-22T10:27:35.033Z,7.20
2019-05-22T10:30:06.340Z,7.47
2019-05-22T10:32:36.973Z,7.50
2019-05-22T10:35:11.059Z,7.30
2019-05-22T10:37:43.349Z,8.67
2019-05-22T10:40:16.004Z,7.27
2019-05-22T10:42:46.884Z,7.30
2019-05-22T10:45:17.637Z,6.90
2019-05-22T10:47:49.983Z,7.50
2019-05-22T10:50:20.683Z,7.50
2019-05-22T10:52:55.186Z,6.53
2019-05-22T10:55:27.329Z,6.53
2019-05-22T10:57:57.948Z,7.43
2019-05-22T11:00:29.873Z,8.00
2019-05-22T11:03:14.844Z,8.60
2019-05-22T11:05:46.162Z,8.00
2019-05-22T11:08:17.341Z,7.60
2019-05-22T11:10:48.170Z,8.27
2019-05-22T11:13:18.595Z,7.80
2019-05-22T11:15:48.799Z,7.13
2019-05-22T11:18:19.838Z,7.73
2019-05-22T11:20:50.322Z,7.57
2019-05-22T11:23:20.494Z,6.93
2019-05-22T11:25:50.933Z,7.47
2019-05-22T11:28:21.344Z,7.20
2019-05-22T11:30:51.690Z,7.70
2019-05-22T11:33:22.151Z,6.77
2019-05-22T11:35:52.751Z,6.13
2019-05-22T11:38:23.244Z,7.30
2019-05-22T11:40:53.889Z,7.80
2019-05-22T11:43:24.180Z,7.50
2019-05-22T11:45:54.623Z,7.67
2019-05-22T11:48:25.307Z,6.90
2019-05-22T11:50:55.727Z,6.60
2019-05-22T11:53:26.136Z,7.50
2019-05-22T11:55:56.612Z,6.73
2019-05-22T11:58:26.686Z,6.33
2019-05-22T12:00:56.918Z,7.03
2019-05-22T12:03:27.183Z,6.47
2019-05-22T12:05:57.334Z,7.30
2019-05-22T12:08:28.044Z,6.77
2019-05-22T12:11:00.049Z,6.53
2019-05-22T12:13:30.813Z,6.40
2019-05-22T12:16:01.688Z,6.47
2019-05-22T12:18:32.080Z,6.43
2019-05-22T12:21:03.649Z,6.60
2019-05-22T12:23:34.856Z,6.17
2019-05-22T12:26:06.095Z,6.93
2019-05-22T12:28:37.803Z,6.27
2019-05-22T12:31:09.222Z,6.47
2019-05-22T12:33:39.767Z,7.43
2019-05-22T12:36:15.471Z,6.70
2019-05-22T12:38:46.375Z,6.30
2019-05-22T12:41:18.873Z,6.80
2019-05-22T12:43:49.220Z,6.07
2019-05-22T12:46:20.980Z,5.37
2019-05-22T12:48:50.902Z,5.73
2019-05-22T12:51:21.652Z,5.70
2019-05-22T12:53:53.493Z,5.33
2019-05-22T12:56:34.373Z,5.70
2019-05-22T12:59:06.790Z,5.40
2019-05-22T13:01:37.595Z,5.10
2019-05-22T13:04:09.058Z,5.43
2019-05-22T13:06:40.474Z,5.53
2019-05-22T13:09:20.757Z,4.80
2019-05-22T13:11:51.078Z,5.50
2019-05-22T13:14:21.795Z,4.80
2019-05-22T13:16:51.927Z,4.70
2019-05-22T13:19:23.822Z,4.80
2019-05-22T13:21:56.942Z,4.47
2019-05-22T13:24:28.246Z,4.70
2019-05-22T13:26:59.708Z,4.67
2019-05-22T13:29:31.629Z,4.73
2019-05-22T13:32:02.254Z,4.97
2019-05-22T13:34:33.304Z,4.63
2019-05-22T13:37:05.257Z,4.00
2019-05-22T13:39:36.374Z,4.57
2019-05-22T13:42:06.237Z,4.70
2019-05-22T13:44:43.031Z,4.87
2019-05-22T13:47:14.347Z,4.03
2019-05-22T13:49:45.248Z,3.87
2019-05-22T13:52:19.048Z,4.17
2019-05-22T13:54:50.396Z,4.30
2019-05-22T13:57:20.873Z,3.90
2019-05-22T13:59:59.358Z,4.03
2019-05-22T14:02:29.872Z,4.47
2019-05-22T14:05:00.203Z,4.50
2019-05-22T14:07:31.334Z,3.60
2019-05-22T14:10:02.731Z,4.60
2019-05-22T14:12:32.959Z,4.67
2019-05-22T14:15:03.553Z,4.40
2019-05-22T14:17:33.904Z,3.93
2019-05-22T14:20:04.498Z,3.90
2019-05-22T14:22:34.502Z,4.30
2019-05-22T14:25:05.425Z,5.00
2019-05-22T14:27:35.879Z,3.97
2019-05-22T14:30:07.633Z,4.47
2019-05-22T14:32:38.170Z,4.50
2019-05-22T14:35:09.249Z,4.30
2019-05-22T14:37:47.110Z,4.73
2019-05-22T14:40:22.080Z,4.03
2019-05-22T14:42:53.043Z,3.47
2019-05-22T14:45:26.703Z,3.57
2019-05-22T14:47:56.704Z,4.03
2019-05-22T14:50:27.279Z,3.00
2019-05-22T14:52:58.053Z,3.73
2019-05-22T14:55:30.038Z,3.10
2019-05-22T14:58:00.245Z,4.07
2019-05-22T15:00:31.420Z,4.43
2019-05-22T15:03:18.332Z,3.73
2019-05-22T15:05:48.737Z,4.50
2019-05-22T15:08:19.838Z,3.47
2019-05-22T15:10:50.516Z,3.67
2019-05-22T15:13:21.098Z,3.43
2019-05-22T15:15:51.071Z,3.53
2019-05-22T15:18:21.343Z,3.93
2019-05-22T15:20:56.766Z,4.30
2019-05-22T15:23:28.280Z,3.43
2019-05-22T15:26:00.737Z,3.23
2019-05-22T15:28:30.893Z,3.60
2019-05-22T15:31:02.096Z,3.57
2019-05-22T15:33:32.392Z,3.67
2019-05-22T15:36:06.583Z,3.70
2019-05-22T15:38:35.664Z,4.23
2019-05-22T15:41:08.559Z,3.53
2019-05-22T15:43:39.173Z,4.20
2019-05-22T15:46:10.375Z,4.00
2019-05-22T15:48:43.332Z,4.47
2019-05-22T15:51:14.457Z,4.47
2019-05-22T15:53:46.111Z,4.40
2019-05-22T15:56:18.304Z,4.33
2019-05-22T15:58:51.749Z,4.60
2019-05-22T16:01:25.628Z,5.07
2019-05-22T16:03:58.113Z,3.50
2019-05-22T16:06:29.778Z,4.30
2019-05-22T16:09:01.733Z,3.87
2019-05-22T16:11:33.732Z,3.80
2019-05-22T16:14:06.438Z,3.73
2019-05-22T16:16:38.466Z,3.50
2019-05-22T16:19:11.960Z,3.93
2019-05-22T16:21:47.376Z,4.03
2019-05-22T16:24:18.585Z,4.00
2019-05-22T16:26:50.132Z,3.87
2019-05-22T16:29:22.099Z,4.03
2019-05-22T16:31:52.697Z,4.40
2019-05-22T16:34:23.095Z,4.37
2019-05-22T16:36:54.572Z,3.30
2019-05-22T16:39:25.091Z,3.90
2019-05-22T16:41:55.428Z,3.90
2019-05-22T16:44:25.733Z,4.20
2019-05-22T16:46:57.338Z,3.90
2019-05-22T16:49:28.302Z,4.30
2019-05-22T16:52:01.199Z,3.77
2019-05-22T16:54:33.233Z,4.40
2019-05-22T16:57:04.097Z,4.47
2019-05-22T16:59:37.243Z,3.53
2019-05-22T17:02:08.944Z,4.00
2019-05-22T17:04:39.087Z,4.07
2019-05-22T17:07:09.612Z,3.97
2019-05-22T17:09:42.151Z,4.70
2019-05-22T17:12:14.104Z,4.00
2019-05-22T17:14:46.055Z,3.97
2019-05-22T17:17:19.682Z,4.13
2019-05-22T17:19:50.636Z,4.40
2019-05-22T17:22:20.807Z,4.43
2019-05-22T17:24:51.124Z,4.50
2019-05-22T17:27:22.184Z,4.47
2019-05-22T17:29:52.871Z,4.90
2019-05-22T17:32:26.918Z,4.57
2019-05-22T17:34:58.458Z,4.90
2019-05-22T17:37:30.862Z,4.70
2019-05-22T17:40:06.423Z,4.40
2019-05-22T17:42:37.838Z,4.90
2019-05-22T17:45:09.677Z,4.93
2019-05-22T17:47:40.584Z,5.43
2019-05-22T17:50:26.093Z,5.47
2019-05-22T17:52:46.307Z,5.77
2019-05-22T17:55:18.598Z,5.13
2019-05-22T17:57:49.597Z,4.70
2019-05-22T18:00:29.849Z,5.87
2019-05-22T18:03:09.986Z,6.07
2019-05-22T18:05:41.363Z,5.73
2019-05-22T18:08:12.353Z,6.20
2019-05-22T18:10:44.831Z,7.03
2019-05-22T18:13:16.531Z,6.03
2019-05-22T18:15:47.723Z,5.80
2019-05-22T18:18:19.062Z,6.10
2019-05-22T18:20:49.500Z,5.60
2019-05-22T18:23:19.795Z,6.60
2019-05-22T18:25:50.106Z,6.40
2019-05-22T18:28:22.347Z,6.90
2019-05-22T18:30:54.012Z,7.50
2019-05-22T18:33:24.458Z,6.50
2019-05-22T18:35:54.633Z,6.80
2019-05-22T18:38:24.987Z,7.80
2019-05-22T18:40:55.690Z,6.93
2019-05-22T18:43:25.664Z,7.50
2019-05-22T18:45:56.080Z,7.50
2019-05-22T18:48:26.599Z,6.40
2019-05-22T18:50:56.974Z,6.90
2019-05-22T18:53:27.286Z,6.80
2019-05-22T18:55:58.222Z,7.20
2019-05-22T18:58:28.360Z,6.87
2019-05-22T19:00:58.444Z,7.07
2019-05-22T19:03:29.319Z,6.80
2019-05-22T19:05:59.961Z,5.53
2019-05-22T19:08:30.447Z,6.47
2019-05-22T19:11:01.231Z,5.57
2019-05-22T19:13:31.730Z,5.80
2019-05-22T19:16:02.875Z,5.70
2019-05-22T19:18:33.420Z,5.43
2019-05-22T19:21:04.151Z,5.13
2019-05-22T19:23:34.112Z,6.60
2019-05-22T19:26:05.857Z,5.77
2019-05-22T19:28:43.633Z,4.50
2019-05-22T19:31:10.046Z,4.57
2019-05-22T19:33:40.190Z,4.17
2019-05-22T19:36:10.254Z,5.70
2019-05-22T19:38:40.454Z,5.23
2019-05-22T19:43:45.783Z,4.30
2019-05-22T19:46:15.989Z,4.80
2019-05-22T19:48:46.487Z,4.53
2019-05-22T19:51:19.755Z,4.70
2019-05-22T19:53:51.458Z,4.90
2019-05-22T19:56:23.797Z,5.47
2019-05-22T19:58:54.392Z,5.50
2019-05-22T20:01:25.766Z,5.20
2019-05-22T20:03:57.708Z,5.10
2019-05-22T20:06:29.595Z,5.70
2019-05-22T20:09:07.070Z,4.60
2019-05-22T20:11:38.706Z,6.40
2019-05-22T20:14:09.915Z,5.23
2019-05-22T20:16:40.159Z,6.53
2019-05-22T20:19:11.751Z,6.27
2019-05-22T20:21:42.119Z,5.73
2019-05-22T20:24:12.788Z,7.43
2019-05-22T20:26:43.472Z,6.20
2019-05-22T20:29:15.794Z,6.83
2019-05-22T20:31:46.104Z,7.63
2019-05-22T20:34:16.533Z,7.97
2019-05-22T20:36:47.209Z,8.20
2019-05-22T20:39:18.734Z,7.90
2019-05-22T20:41:49.265Z,6.37
2019-05-22T20:44:20.822Z,5.97
2019-05-22T20:46:52.007Z,7.07
2019-05-22T20:49:22.751Z,7.33
2019-05-22T20:51:53.869Z,7.60
2019-05-22T20:54:24.669Z,6.83
2019-05-22T20:56:55.045Z,8.10
2019-05-22T20:59:25.387Z,8.80
2019-05-22T21:01:55.735Z,8.10
2019-05-22T21:04:27.412Z,8.60
2019-05-22T21:07:01.732Z,7.47
2019-05-22T21:09:33.830Z,7.73
2019-05-22T21:12:05.506Z,8.57
2019-05-22T21:14:35.777Z,9.40
2019-05-22T21:17:06.631Z,8.03
2019-05-22T21:19:38.027Z,7.20
2019-05-22T21:22:08.547Z,7.83
2019-05-22T21:24:39.678Z,8.87
2019-05-22T21:27:11.000Z,7.87
2019-05-22T21:29:40.988Z,7.80
2019-05-22T21:32:11.955Z,7.60
2019-05-22T21:34:42.124Z,6.63
2019-05-22T21:37:12.773Z,7.20
2019-05-22T21:39:44.319Z,6.93
2019-05-22T21:42:15.012Z,7.33
2019-05-22T21:44:45.531Z,6.90
2019-05-22T21:47:16.415Z,7.40
2019-05-22T21:49:46.908Z,7.83
2019-05-22T21:52:18.042Z,7.33
2019-05-22T21:54:48.317Z,7.33
2019-05-22T21:57:18.734Z,8.83
2019-05-22T21:59:48.764Z,8.43
2019-05-22T22:02:25.683Z,7.90
2019-05-22T22:04:56.006Z,7.00
2019-05-22T22:07:26.591Z,7.43
2019-05-22T22:09:58.439Z,6.67
2019-05-22T22:12:29.618Z,7.70
2019-05-22T22:15:00.155Z,8.30
2019-05-22T22:17:31.435Z,7.40
2019-05-22T22:20:01.372Z,8.17
2019-05-22T22:22:31.843Z,7.67
2019-05-22T22:25:02.437Z,6.93
2019-05-22T22:27:32.527Z,7.10
2019-05-22T22:30:04.286Z,6.90
2019-05-22T22:32:35.428Z,6.77
2019-05-22T22:35:07.927Z,7.90
2019-05-22T22:37:38.807Z,8.33
2019-05-22T22:40:10.743Z,7.40
2019-05-22T22:42:41.955Z,8.60
2019-05-22T22:45:21.188Z,8.10
2019-05-22T22:47:52.282Z,8.20
2019-05-22T22:50:23.867Z,10.97
2019-05-22T22:52:54.063Z,9.97
2019-05-22T22:55:26.939Z,9.40
2019-05-22T22:57:57.751Z,9.87
2019-05-22T23:00:41.262Z,8.13
2019-05-22T23:03:13.891Z,7.20
2019-05-22T23:05:44.892Z,7.60
2019-05-22T23:08:18.739Z,8.30
2019-05-22T23:10:50.214Z,8.63
2019-05-22T23:13:22.057Z,7.50
2019-05-22T23:15:54.268Z,7.90
2019-05-22T23:19:08.339Z,7.43
2019-05-22T23:21:38.022Z,7.03
2019-05-22T23:24:07.476Z,7.70
2019-05-22T23:26:38.837Z,6.97
2019-05-22T23:29:11.312Z,6.93
2019-05-22T23:31:42.310Z,6.40
2019-05-22T23:34:13.868Z,7.43
2019-05-22T23:36:45.825Z,8.70
2019-05-22T23:39:18.196Z,8.90
2019-05-22T23:41:49.122Z,8.50
2019-05-22T23:44:21.650Z,8.47
2019-05-22T23:46:51.678Z,9.17
2019-05-22T23:49:22.344Z,8.87
2019-05-22T23:51:52.946Z,8.60
2019-05-22T23:54:24.159Z,7.80
2019-05-22T23:56:56.070Z,7.67
2019-05-22T23:59:27.949Z,8.63
